Time;durP1;ratioP1;P1;durP2;ratioP2;P2;SDS_P1;SDS_P2;PMS_P1;PMS_P2;Temp;Humidity;BMP_temperature;BMP_pressure;BME280_temperature;BME280_humidity;BME280_pressure;Samples;Min_cycle;Max_cycle;Signal;HPM_P1;HPM_P2
2021/03/31 00:01:53;;;;;;;13.30;7.32;;;11.00;1.00;;;;;;5087683;28;20044;-73
2021/03/31 00:04:21;;;;;;;18.08;7.10;;;10.90;1.00;;;;;;5082385;28;20051;-73
2021/03/31 00:06:50;;;;;;;10.27;6.07;;;10.80;1.00;;;;;;5086912;28;20048;-72
2021/03/31 00:09:17;;;;;;;9.27;6.30;;;10.60;1.00;;;;;;5086621;28;20075;-72
2021/03/31 00:11:45;;;;;;;11.90;6.47;;;10.50;1.00;;;;;;5086209;28;20059;-73
2021/03/31 00:14:13;;;;;;;9.85;6.20;;;10.40;1.00;;;;;;5084828;28;20060;-73
2021/03/31 00:16:40;;;;;;;11.18;5.85;;;10.30;1.00;;;;;;5084090;28;20055;-72
2021/03/31 00:19:07;;;;;;;12.93;6.20;;;10.30;1.00;;;;;;5087205;28;20052;-72
2021/03/31 00:21:34;;;;;;;14.85;6.75;;;10.20;1.00;;;;;;5087762;28;20444;-72
2021/03/31 00:24:01;;;;;;;9.30;5.60;;;10.20;1.00;;;;;;5083180;28;20048;-72
2021/03/31 00:26:27;;;;;;;11.25;6.18;;;10.10;1.00;;;;;;5081885;28;20045;-73
2021/03/31 00:28:55;;;;;;;21.90;7.45;;;10.10;1.00;;;;;;5088222;28;20087;-75
2021/03/31 00:31:22;;;;;;;13.82;6.70;;;10.00;1.00;;;;;;5082785;28;20048;-73
2021/03/31 00:33:49;;;;;;;16.73;7.55;;;9.90;1.00;;;;;;5080890;28;20043;-73
2021/03/31 00:36:16;;;;;;;12.40;6.88;;;9.80;1.00;;;;;;5086561;28;20052;-73
2021/03/31 00:38:43;;;;;;;15.90;7.75;;;9.80;1.00;;;;;;5087981;28;20052;-73
2021/03/31 00:41:10;;;;;;;13.45;7.22;;;9.80;1.00;;;;;;5090837;28;20051;-73
2021/03/31 00:43:37;;;;;;;13.40;6.75;;;10.00;1.00;;;;;;5093237;28;20536;-72
2021/03/31 00:46:05;;;;;;;13.73;6.75;;;10.30;1.00;;;;;;5088260;28;20056;-72
2021/03/31 00:48:32;;;;;;;9.65;6.35;;;10.10;1.00;;;;;;5088448;28;20095;-73
2021/03/31 00:51:00;;;;;;;18.52;7.00;;;10.00;1.00;;;;;;5090376;28;20531;-72
2021/03/31 00:53:30;;;;;;;14.65;6.75;;;9.90;1.00;;;;;;5088791;28;20047;-72
2021/03/31 00:55:58;;;;;;;18.40;7.63;;;9.90;1.00;;;;;;5086172;28;20536;-72
2021/03/31 00:58:25;;;;;;;14.90;8.23;;;10.00;1.00;;;;;;5090256;28;20075;-73
2021/03/31 01:00:52;;;;;;;14.60;6.85;;;10.10;1.00;;;;;;5088771;28;20052;-72
2021/03/31 01:03:20;;;;;;;13.20;7.20;;;10.00;1.00;;;;;;5091652;28;20040;-73
2021/03/31 01:05:47;;;;;;;14.10;7.43;;;9.80;1.00;;;;;;5085676;28;20048;-73
2021/03/31 01:08:14;;;;;;;12.88;7.55;;;9.80;1.00;;;;;;5086309;28;20072;-73
2021/03/31 01:10:42;;;;;;;19.67;7.65;;;9.80;1.00;;;;;;5090562;28;20063;-73
2021/03/31 01:13:32;;;;;;;14.80;7.35;;;9.80;1.00;;;;;;5085293;28;20046;-72
2021/03/31 01:16:06;;;;;;;16.90;7.55;;;9.80;1.00;;;;;;5084660;28;20055;-73
2021/03/31 01:18:39;;;;;;;13.43;7.63;;;9.80;1.00;;;;;;5087814;28;20055;-73
2021/03/31 01:21:54;;;;;;;16.08;7.25;;;9.70;1.00;;;;;;5086482;28;20135;-73
2021/03/31 01:24:59;;;;;;;19.83;8.18;;;9.80;1.00;;;;;;5086647;28;20105;-73
2021/03/31 01:27:37;;;;;;;13.65;8.00;;;9.90;1.00;;;;;;5090424;28;20048;-72
2021/03/31 01:30:12;;;;;;;17.00;8.10;;;9.70;1.00;;;;;;5091834;28;20055;-71
2021/03/31 01:33:03;;;;;;;15.57;7.53;;;9.60;1.00;;;;;;5088488;28;20081;-72
2021/03/31 01:35:31;;;;;;;15.68;8.65;;;9.80;1.00;;;;;;5081041;28;20402;-72
2021/03/31 01:38:02;;;;;;;13.32;7.88;;;9.90;1.00;;;;;;5086537;28;20044;-74
2021/03/31 01:40:35;;;;;;;15.23;8.45;;;9.90;1.00;;;;;;5086811;28;20441;-73
2021/03/31 01:43:06;;;;;;;21.75;8.27;;;10.00;1.00;;;;;;5090175;28;20044;-72
2021/03/31 01:45:34;;;;;;;15.73;7.80;;;9.90;1.00;;;;;;5082631;28;20719;-72
2021/03/31 01:48:07;;;;;;;13.75;7.90;;;9.90;1.00;;;;;;5086938;28;20058;-72
2021/03/31 01:50:36;;;;;;;18.73;8.43;;;9.90;1.00;;;;;;5092159;28;20052;-73
2021/03/31 01:53:05;;;;;;;17.38;8.65;;;9.90;1.00;;;;;;5091722;28;20051;-72
2021/03/31 01:55:33;;;;;;;13.93;8.63;;;9.80;1.00;;;;;;5085286;28;20056;-72
2021/03/31 01:58:02;;;;;;;16.75;8.35;;;9.80;1.00;;;;;;5089893;28;20048;-72
2021/03/31 02:00:31;;;;;;;13.73;7.72;;;9.70;1.00;;;;;;5087885;28;20063;-73
2021/03/31 02:03:00;;;;;;;15.52;9.07;;;9.70;1.00;;;;;;5086588;28;20043;-72
2021/03/31 02:05:29;;;;;;;15.10;8.40;;;9.90;1.00;;;;;;5083855;28;20051;-72
2021/03/31 02:07:59;;;;;;;17.70;9.30;;;9.70;1.00;;;;;;5086793;28;20054;-72
2021/03/31 02:10:28;;;;;;;15.88;8.35;;;9.60;1.00;;;;;;5087121;28;20055;-72
2021/03/31 02:12:56;;;;;;;17.77;9.48;;;9.60;1.00;;;;;;5088264;28;20127;-72
2021/03/31 02:15:27;;;;;;;17.45;9.02;;;9.50;1.00;;;;;;5083520;28;20043;-72
2021/03/31 02:17:56;;;;;;;19.23;9.10;;;9.50;1.00;;;;;;5089561;28;20058;-72
2021/03/31 02:20:24;;;;;;;14.05;8.80;;;9.30;1.00;;;;;;5089273;28;20052;-72
2021/03/31 02:22:52;;;;;;;23.02;9.75;;;9.30;1.00;;;;;;5089882;28;20051;-72
2021/03/31 02:25:21;;;;;;;19.05;9.27;;;9.30;1.00;;;;;;5084208;28;20056;-72
2021/03/31 02:27:48;;;;;;;14.38;8.63;;;9.20;1.00;;;;;;5089716;28;20040;-72
2021/03/31 02:30:18;;;;;;;16.38;9.18;;;9.10;1.00;;;;;;5087480;28;20044;-71
2021/03/31 02:32:48;;;;;;;16.45;8.95;;;9.00;1.00;;;;;;5090161;28;20067;-72
2021/03/31 02:35:18;;;;;;;15.13;9.15;;;8.90;1.00;;;;;;5084101;28;20044;-72
2021/03/31 02:37:46;;;;;;;16.58;9.68;;;8.90;1.00;;;;;;5088038;28;20123;-72
2021/03/31 02:40:13;;;;;;;17.98;9.60;;;8.90;1.00;;;;;;5088129;28;20490;-73
2021/03/31 02:42:44;;;;;;;15.52;9.43;;;8.80;1.00;;;;;;5090406;28;20315;-72
2021/03/31 02:45:15;;;;;;;17.42;9.60;;;8.80;1.00;;;;;;5084537;28;20627;-72
2021/03/31 02:47:45;;;;;;;17.13;9.70;;;8.90;1.00;;;;;;5087448;28;20059;-72
2021/03/31 02:50:14;;;;;;;20.90;10.95;;;8.90;1.00;;;;;;5089491;28;20130;-72
2021/03/31 02:52:44;;;;;;;19.83;10.02;;;9.00;1.00;;;;;;5089920;28;20044;-72
2021/03/31 02:55:12;;;;;;;18.85;10.13;;;8.80;1.00;;;;;;5084801;28;20050;-71
2021/03/31 02:57:40;;;;;;;15.48;9.75;;;8.90;1.00;;;;;;5088103;28;20050;-73
2021/03/31 03:00:10;;;;;;;16.05;9.98;;;9.00;1.00;;;;;;5090447;28;20044;-72
2021/03/31 03:02:38;;;;;;;23.35;10.05;;;8.80;1.00;;;;;;5089474;28;20050;-72
2021/03/31 03:05:07;;;;;;;15.82;9.98;;;8.70;1.00;;;;;;5081368;28;20142;-72
2021/03/31 03:07:34;;;;;;;18.60;10.10;;;8.90;1.00;;;;;;5087331;28;20436;-72
2021/03/31 03:10:03;;;;;;;19.58;9.90;;;8.80;1.00;;;;;;5090067;28;20494;-71
2021/03/31 03:12:30;;;;;;;20.65;10.65;;;8.70;1.00;;;;;;5087438;28;20050;-73
2021/03/31 03:14:58;;;;;;;16.98;9.95;;;8.70;1.00;;;;;;5082930;28;20138;-72
2021/03/31 03:17:25;;;;;;;18.73;9.93;;;8.80;1.00;;;;;;5085447;28;20103;-72
2021/03/31 03:19:53;;;;;;;16.48;10.13;;;8.70;1.00;;;;;;5086437;28;20425;-72
2021/03/31 03:22:20;;;;;;;19.00;10.80;;;8.70;1.00;;;;;;5087020;28;20066;-72
2021/03/31 03:24:48;;;;;;;16.55;9.35;;;8.60;1.00;;;;;;5081475;28;20044;-73
2021/03/31 03:27:16;;;;;;;17.33;9.90;;;8.60;1.00;;;;;;5086505;28;20044;-72
2021/03/31 03:29:45;;;;;;;15.25;10.10;;;8.50;1.00;;;;;;5087839;28;20442;-73
2021/03/31 03:32:13;;;;;;;14.27;9.15;;;8.60;1.00;;;;;;5088076;28;20083;-72
2021/03/31 03:34:41;;;;;;;18.45;9.75;;;8.60;1.00;;;;;;5082854;28;20517;-71
2021/03/31 03:37:09;;;;;;;22.05;10.13;;;8.60;1.00;;;;;;5085360;28;20055;-72
2021/03/31 03:39:36;;;;;;;18.23;9.80;;;8.50;1.00;;;;;;5086739;28;20076;-73
2021/03/31 03:42:04;;;;;;;22.48;10.40;;;8.50;1.00;;;;;;5089726;28;20040;-72
2021/03/31 03:44:31;;;;;;;14.98;9.90;;;8.30;1.00;;;;;;5082234;28;20052;-72
2021/03/31 03:46:59;;;;;;;23.02;10.27;;;8.30;1.00;;;;;;5086917;28;20059;-72
2021/03/31 03:49:26;;;;;;;18.58;10.80;;;8.40;1.00;;;;;;5089446;28;20063;-72
2021/03/31 03:51:54;;;;;;;19.92;9.88;;;8.40;1.00;;;;;;5089468;28;20071;-72
2021/03/31 03:54:22;;;;;;;20.60;10.57;;;8.40;1.00;;;;;;5085430;28;20509;-71
2021/03/31 03:56:49;;;;;;;16.65;9.70;;;8.40;1.00;;;;;;5088539;28;20048;-71
2021/03/31 03:59:18;;;;;;;17.25;10.55;;;8.40;1.00;;;;;;5086784;28;20140;-72
2021/03/31 04:01:46;;;;;;;17.38;10.65;;;8.50;1.00;;;;;;5086833;28;20040;-72
2021/03/31 04:04:12;;;;;;;21.30;10.93;;;8.30;1.00;;;;;;5080271;28;20055;-71
2021/03/31 04:06:39;;;;;;;18.13;10.73;;;8.30;1.00;;;;;;5085020;28;20139;-72
2021/03/31 04:09:07;;;;;;;21.45;10.93;;;8.30;1.00;;;;;;5085010;28;20048;-72
2021/03/31 04:11:37;;;;;;;18.88;10.50;;;8.20;1.00;;;;;;5087865;28;20059;-72
2021/03/31 04:14:05;;;;;;;16.42;10.30;;;8.20;1.00;;;;;;5080796;28;20114;-72
2021/03/31 04:16:33;;;;;;;22.23;11.77;;;8.10;1.00;;;;;;5083542;28;20584;-73
2021/03/31 04:19:03;;;;;;;24.60;11.35;;;8.30;1.00;;;;;;5086173;28;20044;-72
2021/03/31 04:21:32;;;;;;;26.13;11.13;;;8.20;1.00;;;;;;5088484;28;20122;-72
2021/03/31 04:23:59;;;;;;;19.67;10.77;;;8.30;1.00;;;;;;5083778;28;20498;-72
2021/03/31 04:26:29;;;;;;;17.83;10.98;;;8.20;1.00;;;;;;5085986;28;20048;-72
2021/03/31 04:28:57;;;;;;;19.73;10.88;;;8.30;1.00;;;;;;5086705;28;20067;-71
2021/03/31 04:31:26;;;;;;;18.80;9.85;;;8.20;1.00;;;;;;5088205;28;20657;-72
2021/03/31 04:33:54;;;;;;;19.55;10.68;;;8.20;1.00;;;;;;5086686;28;20040;-72
2021/03/31 04:36:21;;;;;;;25.20;10.85;;;8.20;1.00;;;;;;5084140;28;20062;-72
2021/03/31 04:38:49;;;;;;;20.05;10.82;;;8.20;1.00;;;;;;5082903;28;20048;-72
2021/03/31 04:41:17;;;;;;;21.08;11.00;;;8.20;1.00;;;;;;5085916;28;20040;-71
2021/03/31 04:43:45;;;;;;;30.05;11.02;;;8.20;1.00;;;;;;5088523;28;20044;-72
2021/03/31 04:46:12;;;;;;;29.85;11.82;;;8.20;1.00;;;;;;5084575;28;20147;-72
2021/03/31 04:48:40;;;;;;;28.50;10.27;;;8.20;1.00;;;;;;5085086;28;20055;-72
2021/03/31 04:51:08;;;;;;;18.23;9.45;;;8.20;1.00;;;;;;5089709;28;20052;-72
2021/03/31 04:53:35;;;;;;;16.80;9.43;;;8.30;1.00;;;;;;5089200;28;20189;-71
2021/03/31 04:56:03;;;;;;;23.92;9.90;;;8.30;1.00;;;;;;5082873;28;20471;-71
2021/03/31 04:58:30;;;;;;;17.98;9.80;;;8.30;1.00;;;;;;5088486;28;20048;-71
2021/03/31 05:00:59;;;;;;;22.58;9.65;;;8.30;1.00;;;;;;5089474;28;20051;-72
2021/03/31 05:03:26;;;;;;;19.63;11.27;;;8.30;1.00;;;;;;5087876;28;20085;-72
2021/03/31 05:05:53;;;;;;;32.58;9.98;;;8.30;1.00;;;;;;5081149;28;20052;-72
2021/03/31 05:08:19;;;;;;;18.58;8.98;;;8.40;1.00;;;;;;5085487;28;20413;-72
2021/03/31 05:10:46;;;;;;;21.52;10.20;;;8.50;1.00;;;;;;5086287;28;20048;-73
2021/03/31 05:13:13;;;;;;;16.80;9.32;;;8.50;1.00;;;;;;5087867;28;20044;-72
2021/03/31 05:15:41;;;;;;;16.08;9.02;;;8.60;1.00;;;;;;5081809;28;20056;-72
2021/03/31 05:18:10;;;;;;;18.45;9.25;;;8.60;1.00;;;;;;5086510;28;20508;-72
2021/03/31 05:20:37;;;;;;;17.17;9.88;;;8.70;1.00;;;;;;5089852;28;20058;-73
2021/03/31 05:23:04;;;;;;;18.35;9.38;;;8.70;1.00;;;;;;5091475;28;20036;-73
2021/03/31 05:25:31;;;;;;;14.07;8.30;;;9.40;1.00;;;;;;5084202;28;20051;-73
2021/03/31 05:27:58;;;;;;;22.85;8.80;;;9.50;1.00;;;;;;5092053;28;20555;-73
2021/03/31 05:30:26;;;;;;;19.70;8.55;;;9.90;1.00;;;;;;5089694;28;20055;-72
2021/03/31 05:32:53;;;;;;;19.38;8.50;;;10.20;1.00;;;;;;5089141;28;20127;-74
2021/03/31 05:35:21;;;;;;;17.98;8.45;;;10.60;1.00;;;;;;5086180;28;20047;-74
2021/03/31 05:37:48;;;;;;;14.88;8.63;;;10.20;1.00;;;;;;5090339;28;20056;-74
2021/03/31 05:40:16;;;;;;;19.60;9.02;;;9.60;1.00;;;;;;5089351;28;20703;-73
2021/03/31 05:42:43;;;;;;;13.57;8.45;;;9.30;1.00;;;;;;5087860;28;20093;-73
2021/03/31 05:45:12;;;;;;;15.20;8.73;;;9.40;1.00;;;;;;5083711;28;20058;-73
2021/03/31 05:47:42;;;;;;;29.75;9.85;;;9.40;1.00;;;;;;5087275;28;20040;-73
2021/03/31 05:50:12;;;;;;;20.13;9.40;;;9.50;1.00;;;;;;5089860;28;20050;-73
2021/03/31 05:52:40;;;;;;;18.42;8.68;;;9.50;1.00;;;;;;5088848;28;20079;-73
2021/03/31 05:55:09;;;;;;;16.23;8.90;;;9.50;1.00;;;;;;5084367;28;20072;-73
2021/03/31 05:57:37;;;;;;;13.60;8.77;;;9.50;1.00;;;;;;5088012;28;20512;-72
2021/03/31 06:00:08;;;;;;;19.40;9.25;;;9.40;1.00;;;;;;5087417;28;20072;-73
2021/03/31 06:02:35;;;;;;;20.02;9.57;;;9.50;1.00;;;;;;5089616;28;20048;-72
2021/03/31 06:05:03;;;;;;;24.55;8.50;;;9.50;1.00;;;;;;5085368;28;20068;-73
2021/03/31 06:07:30;;;;;;;32.17;9.98;;;9.50;1.00;;;;;;5090004;28;20047;-72
2021/03/31 06:10:14;;;;;;;24.73;9.38;;;9.60;1.00;;;;;;5087428;28;20051;-73
2021/03/31 06:12:44;;;;;;;16.92;9.98;;;9.50;1.00;;;;;;5088819;28;20490;-72
2021/03/31 06:15:15;;;;;;;14.43;9.13;;;9.70;1.00;;;;;;5084823;28;20391;-72
2021/03/31 06:17:46;;;;;;;21.33;8.93;;;9.80;1.00;;;;;;5086285;28;20086;-72
2021/03/31 06:20:34;;;;;;;18.92;9.50;;;10.10;1.00;;;;;;5089679;28;20048;-73
2021/03/31 06:23:08;;;;;;;19.48;9.40;;;10.10;1.00;;;;;;5086345;28;20086;-73
2021/03/31 06:25:43;;;;;;;18.60;9.88;;;10.20;1.00;;;;;;5083434;28;20048;-73
2021/03/31 06:28:10;;;;;;;30.67;9.73;;;10.20;1.00;;;;;;5088630;28;20544;-73
2021/03/31 06:30:38;;;;;;;18.33;9.88;;;10.30;1.00;;;;;;5082577;28;20414;-72
2021/03/31 06:33:05;;;;;;;20.85;8.98;;;10.30;1.00;;;;;;5087125;28;20062;-72
2021/03/31 06:35:32;;;;;;;20.27;9.35;;;10.30;1.00;;;;;;5085398;28;20087;-73
2021/03/31 06:38:07;;;;;;;26.00;8.93;;;10.40;1.00;;;;;;5087519;28;20048;-72
2021/03/31 06:40:41;;;;;;;27.08;9.30;;;10.50;1.00;;;;;;5086560;28;20858;-72
2021/03/31 06:43:19;;;;;;;18.73;9.48;;;10.60;1.00;;;;;;5086847;28;20040;-73
2021/03/31 06:45:52;;;;;;;21.95;8.80;;;10.60;1.00;;;;;;5081959;28;20544;-72
2021/03/31 06:48:21;;;;;;;21.27;8.60;;;10.60;1.00;;;;;;5087524;28;20055;-72
2021/03/31 06:50:48;;;;;;;17.52;8.23;;;10.40;1.00;;;;;;5087725;28;20059;-72
2021/03/31 06:53:25;;;;;;;21.80;8.15;;;10.60;1.00;;;;;;5089738;28;20047;-72
2021/03/31 06:55:58;;;;;;;21.13;8.85;;;10.60;1.00;;;;;;5084523;28;20100;-72
2021/03/31 06:58:25;;;;;;;23.15;9.02;;;10.60;1.00;;;;;;5087100;28;20066;-72
2021/03/31 07:00:52;;;;;;;16.90;9.30;;;10.60;1.00;;;;;;5090518;28;20047;-72
2021/03/31 07:03:20;;;;;;;19.23;9.00;;;10.60;1.00;;;;;;5086426;28;20046;-70
2021/03/31 07:05:47;;;;;;;16.60;8.43;;;10.70;1.00;;;;;;5081462;28;20048;-72
2021/03/31 07:08:17;;;;;;;16.20;8.95;;;10.70;1.00;;;;;;5086147;28;20052;-72
2021/03/31 07:10:51;;;;;;;15.60;9.00;;;10.90;1.00;;;;;;5085608;28;20145;-72
2021/03/31 07:13:28;;;;;;;20.17;8.98;;;10.90;1.00;;;;;;5083208;28;20043;-73
2021/03/31 07:15:59;;;;;;;17.50;9.13;;;11.10;1.00;;;;;;5082523;28;20051;-72
2021/03/31 07:18:29;;;;;;;18.52;7.93;;;11.10;1.00;;;;;;5084223;28;20621;-73
2021/03/31 07:20:56;;;;;;;18.55;8.90;;;11.10;1.00;;;;;;5083678;28;20052;-72
2021/03/31 07:23:25;;;;;;;15.50;8.02;;;11.10;1.00;;;;;;5084467;28;20491;-73
2021/03/31 07:25:53;;;;;;;12.50;7.90;;;11.20;1.00;;;;;;5082539;28;20050;-73
2021/03/31 07:28:24;;;;;;;15.65;8.27;;;11.40;1.00;;;;;;5087758;28;20622;-72
2021/03/31 07:30:51;;;;;;;23.63;8.73;;;11.70;1.00;;;;;;5085606;28;20056;-72
2021/03/31 07:33:22;;;;;;;16.80;9.00;;;11.80;1.00;;;;;;5087977;28;20090;-72
2021/03/31 07:35:51;;;;;;;16.85;8.98;;;11.90;1.00;;;;;;5076976;28;20044;-72
2021/03/31 07:38:21;;;;;;;16.98;8.88;;;12.10;1.00;;;;;;5086303;28;20049;-73
2021/03/31 07:40:51;;;;;;;21.85;8.70;;;12.30;1.00;;;;;;5086613;28;20049;-71
2021/03/31 07:43:23;;;;;;;14.30;8.30;;;12.40;1.00;;;;;;5088085;28;20516;-72
2021/03/31 07:45:55;;;;;;;14.48;8.05;;;12.40;1.00;;;;;;5076614;28;20099;-73
2021/03/31 07:48:23;;;;;;;17.73;8.65;;;12.40;1.00;;;;;;5086322;28;20048;-73
2021/03/31 07:50:50;;;;;;;15.57;8.77;;;12.50;1.00;;;;;;5083224;28;20052;-73
2021/03/31 07:53:17;;;;;;;13.50;8.10;;;12.50;1.00;;;;;;5086440;28;20060;-72
2021/03/31 07:55:45;;;;;;;15.00;8.15;;;12.60;1.00;;;;;;5080485;28;20517;-73
2021/03/31 07:58:23;;;;;;;14.32;8.88;;;12.70;1.00;;;;;;5083445;28;20523;-72
2021/03/31 08:00:54;;;;;;;17.55;8.23;;;12.90;1.00;;;;;;5088906;28;20531;-72
2021/03/31 08:03:23;;;;;;;17.23;8.32;;;13.00;1.00;;;;;;5087834;28;20093;-73
2021/03/31 08:06:10;;;;;;;13.20;7.78;;;13.20;1.00;;;;;;5082121;28;20520;-73
2021/03/31 08:08:54;;;;;;;18.25;9.02;;;13.40;1.00;;;;;;5084559;28;20040;-73
2021/03/31 08:11:46;;;;;;;20.17;8.45;;;13.60;1.00;;;;;;5084251;28;20052;-72
2021/03/31 08:14:17;;;;;;;16.58;8.15;;;13.70;1.00;;;;;;5083251;28;20043;-70
2021/03/31 08:16:46;;;;;;;17.90;9.05;;;13.80;1.00;;;;;;5084701;28;20044;-73
2021/03/31 08:19:16;;;;;;;20.60;9.18;;;13.90;1.00;;;;;;5086667;28;20047;-73
2021/03/31 08:21:44;;;;;;;17.92;9.88;;;13.90;1.00;;;;;;5086997;28;20055;-72
2021/03/31 08:24:12;;;;;;;15.43;8.43;;;14.00;1.00;;;;;;5083335;28;20059;-72
2021/03/31 08:26:41;;;;;;;14.35;9.68;;;14.20;1.00;;;;;;5083575;28;20052;-72
2021/03/31 08:29:17;;;;;;;14.02;9.23;;;14.50;1.00;;;;;;5087862;28;20044;-71
2021/03/31 08:31:47;;;;;;;22.90;9.30;;;14.60;1.00;;;;;;5086910;28;20048;-71
2021/03/31 08:34:15;;;;;;;15.43;8.75;;;14.80;1.00;;;;;;5082696;28;20052;-71
2021/03/31 08:36:43;;;;;;;17.45;8.48;;;14.90;1.00;;;;;;5085936;28;20059;-71
2021/03/31 08:39:12;;;;;;;17.80;9.00;;;15.20;1.00;;;;;;5086575;28;20421;-72
2021/03/31 08:41:41;;;;;;;13.30;8.93;;;15.30;1.00;;;;;;5086489;28;20048;-72
2021/03/31 08:44:12;;;;;;;22.52;10.73;;;15.40;1.00;;;;;;5084430;28;20055;-72
2021/03/31 08:46:40;;;;;;;27.90;10.35;;;15.60;1.00;;;;;;5086292;28;20048;-72
2021/03/31 08:49:21;;;;;;;16.48;9.40;;;15.60;1.00;;;;;;5086661;28;20110;-72
2021/03/31 08:51:50;;;;;;;19.20;9.18;;;15.80;1.00;;;;;;5088284;28;20048;-72
2021/03/31 08:54:17;;;;;;;15.73;9.30;;;16.00;1.00;;;;;;5083271;28;20565;-72
2021/03/31 08:56:48;;;;;;;21.27;10.18;;;16.00;1.00;;;;;;5088457;28;20044;-72
2021/03/31 08:59:29;;;;;;;21.52;10.40;;;16.00;1.00;;;;;;5092300;28;20067;-72
2021/03/31 09:01:56;;;;;;;17.15;9.55;;;16.20;1.00;;;;;;5088132;28;20040;-72
2021/03/31 09:04:25;;;;;;;17.70;10.05;;;16.30;1.00;;;;;;5086972;28;20490;-71
2021/03/31 09:06:53;;;;;;;21.75;10.65;;;16.50;1.00;;;;;;5091271;28;20044;-73
2021/03/31 09:09:20;;;;;;;21.00;10.27;;;16.60;1.00;;;;;;5086733;28;20055;-73
2021/03/31 09:11:47;;;;;;;21.75;10.23;;;16.70;1.00;;;;;;5089815;28;20044;-73
2021/03/31 09:14:19;;;;;;;21.40;10.32;;;16.70;1.00;;;;;;5082302;28;20056;-73
2021/03/31 09:16:51;;;;;;;18.55;9.68;;;16.70;1.00;;;;;;5088440;28;20058;-73
2021/03/31 09:19:28;;;;;;;24.08;10.80;;;16.80;1.00;;;;;;5089396;28;20076;-71
2021/03/31 09:21:55;;;;;;;24.20;10.23;;;17.10;1.00;;;;;;5091526;28;20048;-73
2021/03/31 09:24:23;;;;;;;25.80;10.48;;;17.30;1.00;;;;;;5083935;28;20044;-73
2021/03/31 09:26:58;;;;;;;21.63;11.43;;;17.50;1.00;;;;;;5086233;28;20050;-73
2021/03/31 09:29:26;;;;;;;22.67;10.93;;;17.60;1.00;;;;;;5087919;28;20116;-72
2021/03/31 09:31:53;;;;;;;27.92;10.45;;;17.70;1.00;;;;;;5089791;28;20048;-73
2021/03/31 09:34:22;;;;;;;25.08;10.55;;;17.70;1.00;;;;;;5083263;28;20048;-72
2021/03/31 09:37:01;;;;;;;16.35;10.02;;;17.80;1.00;;;;;;5088191;28;20469;-72
2021/03/31 09:39:38;;;;;;;19.40;10.75;;;18.00;1.00;;;;;;5087477;28;20068;-73
2021/03/31 09:42:08;;;;;;;19.70;9.82;;;18.00;1.00;;;;;;5090227;28;20160;-72
2021/03/31 09:44:36;;;;;;;24.02;10.20;;;18.30;1.00;;;;;;5083326;28;20051;-73
2021/03/31 09:47:03;;;;;;;22.45;10.88;;;18.30;1.00;;;;;;5086199;28;20051;-72
2021/03/31 09:49:31;;;;;;;19.35;10.57;;;18.40;1.00;;;;;;5087784;28;20090;-73
2021/03/31 09:52:00;;;;;;;18.80;10.70;;;18.50;1.00;;;;;;5088870;28;20433;-71
2021/03/31 09:54:28;;;;;;;32.00;14.95;;;18.70;1.00;;;;;;5081777;28;20573;-73
2021/03/31 09:56:55;;;;;;;21.33;10.98;;;18.80;1.00;;;;;;5085359;28;20510;-73
2021/03/31 09:59:23;;;;;;;17.85;10.65;;;18.90;1.00;;;;;;5088579;28;20140;-72
2021/03/31 10:01:50;;;;;;;21.25;11.85;;;19.00;1.00;;;;;;5088641;28;20039;-72
2021/03/31 10:04:17;;;;;;;22.25;12.32;;;19.10;1.00;;;;;;5082788;28;20101;-72
2021/03/31 10:07:15;;;;;;;20.60;11.13;;;19.10;1.00;;;;;;5084770;28;20052;-73
2021/03/31 10:10:00;;;;;;;16.80;10.25;;;19.20;1.00;;;;;;5088861;28;20092;-73
2021/03/31 10:12:28;;;;;;;24.10;10.18;;;19.40;1.00;;;;;;5088542;28;20170;-72
2021/03/31 10:14:57;;;;;;;19.88;10.27;;;19.50;1.00;;;;;;5083403;28;20120;-73
2021/03/31 10:17:26;;;;;;;19.38;10.40;;;19.70;1.00;;;;;;5085605;28;20047;-72
2021/03/31 10:19:53;;;;;;;23.42;10.32;;;19.70;1.00;;;;;;5089475;28;20055;-72
2021/03/31 10:22:21;;;;;;;19.48;10.48;;;19.90;1.00;;;;;;5088571;28;20044;-72
2021/03/31 10:25:23;;;;;;;20.88;10.88;;;19.90;1.00;;;;;;5082238;28;20109;-72
2021/03/31 10:28:10;;;;;;;18.88;10.48;;;19.80;1.00;;;;;;5087208;28;20120;-73
2021/03/31 10:31:17;;;;;;;21.77;10.55;;;19.90;1.00;;;;;;5088428;28;20040;-73
2021/03/31 10:34:04;;;;;;;21.08;10.55;;;20.10;1.00;;;;;;5083502;28;20521;-73
2021/03/31 10:36:38;;;;;;;19.52;10.07;;;20.10;1.00;;;;;;5082410;28;20048;-73
2021/03/31 10:39:40;;;;;;;24.52;11.05;;;20.20;1.00;;;;;;5087741;28;20055;-72
2021/03/31 10:50:53;;;;;;;17.30;9.77;;;20.50;1.00;;;;;;5025747;28;20068;-72
2021/03/31 10:53:31;;;;;;;18.73;10.63;;;20.50;1.00;;;;;;5027974;28;20041;-73
2021/03/31 10:56:00;;;;;;;17.80;10.10;;;20.60;1.00;;;;;;5051525;28;20046;-73
2021/03/31 10:58:27;;;;;;;20.52;10.65;;;20.60;1.00;;;;;;5086760;28;20149;-72
2021/03/31 11:00:55;;;;;;;18.75;10.75;;;20.60;1.00;;;;;;5087179;28;20068;-72
2021/03/31 11:03:23;;;;;;;19.45;10.27;;;20.80;1.00;;;;;;5086407;28;20074;-73
2021/03/31 11:05:53;;;;;;;20.20;9.75;;;20.90;1.00;;;;;;5079135;28;20048;-72
2021/03/31 11:08:20;;;;;;;17.58;10.77;;;21.10;1.00;;;;;;5085837;28;20059;-73
2021/03/31 11:10:49;;;;;;;16.15;10.30;;;21.10;1.00;;;;;;5087142;28;20044;-73
2021/03/31 11:13:17;;;;;;;16.92;10.38;;;21.00;1.00;;;;;;5083596;28;20131;-73
2021/03/31 11:15:44;;;;;;;20.90;11.07;;;21.00;1.00;;;;;;5078587;28;20048;-74
2021/03/31 11:18:23;;;;;;;19.00;9.55;;;20.90;1.00;;;;;;5086698;28;20048;-72
2021/03/31 11:21:05;;;;;;;16.80;9.60;;;21.40;1.00;;;;;;5086191;28;20094;-73
2021/03/31 11:26:17;;;;;;;16.05;9.55;;;21.50;1.00;;;;;;5083290;28;20093;-73
2021/03/31 11:28:45;;;;;;;20.13;10.07;;;21.60;1.00;;;;;;5085502;28;20056;-73
2021/03/31 11:31:12;;;;;;;23.25;10.30;;;21.30;1.00;;;;;;5086040;28;20043;-74
2021/03/31 11:33:39;;;;;;;22.00;11.15;;;21.70;1.00;;;;;;5083540;28;20080;-71
2021/03/31 11:36:10;;;;;;;23.60;10.30;;;21.80;1.00;;;;;;5082769;28;20055;-72
2021/03/31 11:38:41;;;;;;;19.02;9.63;;;21.80;1.00;;;;;;5085697;28;20047;-72
2021/03/31 11:41:08;;;;;;;15.50;9.35;;;21.90;1.00;;;;;;5087100;28;20043;-73
2021/03/31 11:43:35;;;;;;;16.80;10.35;;;22.00;1.00;;;;;;5084998;28;20044;-72
2021/03/31 11:46:03;;;;;;;16.55;9.52;;;22.30;1.00;;;;;;5080487;28;20044;-73
2021/03/31 11:48:31;;;;;;;18.63;9.60;;;22.30;1.00;;;;;;5081881;28;20059;-74
2021/03/31 11:50:57;;;;;;;18.95;9.98;;;22.20;1.00;;;;;;5086991;28;20044;-74
2021/03/31 11:53:29;;;;;;;20.50;10.35;;;22.10;1.00;;;;;;5086452;28;20047;-68
2021/03/31 11:55:56;;;;;;;18.25;9.95;;;22.20;1.00;;;;;;5078357;28;20461;-67
2021/03/31 11:58:23;;;;;;;21.60;11.20;;;21.90;1.00;;;;;;5085570;28;20040;-68
2021/03/31 12:00:51;;;;;;;17.80;9.32;;;21.90;1.00;;;;;;5086497;28;20062;-68
2021/03/31 12:03:20;;;;;;;16.98;10.80;;;22.20;1.00;;;;;;5085656;28;20052;-68
2021/03/31 12:05:47;;;;;;;19.27;10.43;;;22.40;1.00;;;;;;5080545;28;20063;-68
2021/03/31 12:08:15;;;;;;;20.25;10.00;;;22.30;1.00;;;;;;5085867;28;20085;-68
2021/03/31 12:10:41;;;;;;;16.67;9.77;;;22.20;1.00;;;;;;5087048;28;20040;-68
2021/03/31 12:13:08;;;;;;;16.48;9.57;;;22.40;1.00;;;;;;5087449;28;20123;-67
2021/03/31 12:15:35;;;;;;;15.80;10.02;;;22.20;1.00;;;;;;5079381;28;20048;-68
2021/03/31 12:18:02;;;;;;;20.13;9.82;;;22.20;1.00;;;;;;5086526;28;20044;-68
2021/03/31 12:20:30;;;;;;;19.88;9.43;;;22.40;1.00;;;;;;5085668;28;20052;-68
2021/03/31 12:22:57;;;;;;;12.80;8.30;;;22.50;1.00;;;;;;5086156;28;20044;-68
2021/03/31 12:25:24;;;;;;;16.13;9.02;;;22.60;1.00;;;;;;5080555;28;20478;-68
2021/03/31 12:27:55;;;;;;;14.80;8.45;;;22.70;1.00;;;;;;5085414;28;20079;-67
2021/03/31 12:30:23;;;;;;;15.15;8.80;;;22.70;1.00;;;;;;5084543;28;20060;-68
2021/03/31 12:32:50;;;;;;;15.70;8.52;;;22.70;1.00;;;;;;5091115;28;20505;-67
2021/03/31 12:35:17;;;;;;;15.52;8.38;;;22.80;1.00;;;;;;5082945;28;20052;-67
2021/03/31 12:37:45;;;;;;;18.10;9.10;;;22.90;1.00;;;;;;5088142;28;20052;-68
2021/03/31 12:40:13;;;;;;;17.15;9.27;;;22.80;1.00;;;;;;5090094;28;20052;-68
2021/03/31 12:42:40;;;;;;;14.25;8.48;;;22.60;1.00;;;;;;5090900;28;20130;-68
2021/03/31 12:45:08;;;;;;;19.50;8.98;;;22.80;1.00;;;;;;5086207;28;20382;-66
2021/03/31 12:47:39;;;;;;;12.05;8.20;;;22.90;1.00;;;;;;5089499;28;20135;-66
2021/03/31 12:50:07;;;;;;;19.42;7.85;;;22.70;1.00;;;;;;5089269;28;20049;-66
2021/03/31 12:52:40;;;;;;;14.40;9.05;;;22.90;1.00;;;;;;5085690;28;20044;-66
2021/03/31 12:55:12;;;;;;;14.90;8.70;;;22.90;1.00;;;;;;5083332;28;20048;-68
2021/03/31 12:57:40;;;;;;;14.45;9.10;;;22.80;1.00;;;;;;5080134;28;20052;-66
2021/03/31 13:00:08;;;;;;;14.02;7.68;;;22.80;1.00;;;;;;5083102;28;20139;-66
2021/03/31 13:02:55;;;;;;;13.05;7.85;;;22.90;1.00;;;;;;5088797;28;20044;-66
2021/03/31 13:05:42;;;;;;;20.48;9.85;;;22.90;1.00;;;;;;5080573;28;20437;-69
2021/03/31 13:08:29;;;;;;;19.67;8.77;;;22.90;1.00;;;;;;5087833;28;20539;-66
2021/03/31 13:11:17;;;;;;;21.42;8.63;;;23.00;1.00;;;;;;5089462;28;20064;-67
2021/03/31 13:14:03;;;;;;;15.57;7.10;;;23.20;1.00;;;;;;5086353;28;20047;-68
2021/03/31 13:16:38;;;;;;;14.35;8.00;;;23.10;1.00;;;;;;5081252;28;20163;-67